Time;durP1;ratioP1;P1;durP2;ratioP2;P2;SDS_P1;SDS_P2;PMS_P1;PMS_P2;Temp;Humidity;BMP_temperature;BMP_pressure;BME280_temperature;BME280_humidity;BME280_pressure;Samples;Min_cycle;Max_cycle;Signal;HPM_P1;HPM_P2
2023/12/13 00:00:36;;;;;;;4.67;1.90;;;;;;;7.59;100.00;99640.47;5130573;27;20015;-36
2023/12/13 00:03:01;;;;;;;4.53;2.00;;;;;;;7.56;100.00;99635.56;5130637;27;20039;-36
2023/12/13 00:05:27;;;;;;;3.20;1.73;;;;;;;7.55;100.00;99636.63;5131254;27;20383;-36
2023/12/13 00:07:52;;;;;;;6.37;2.00;;;;;;;7.57;100.00;99629.97;5121705;27;20031;-36
2023/12/13 00:10:17;;;;;;;5.30;1.70;;;;;;;7.54;100.00;99624.22;5117748;28;20068;-36
2023/12/13 00:12:43;;;;;;;4.15;1.50;;;;;;;7.56;100.00;99624.78;5117125;28;20042;-36
2023/12/13 00:15:08;;;;;;;5.30;2.00;;;;;;;7.53;100.00;99623.41;5117246;28;20027;-37
2023/12/13 00:17:34;;;;;;;3.22;1.70;;;;;;;7.54;100.00;99626.94;5116989;28;20168;-36
2023/12/13 00:19:59;;;;;;;6.07;1.77;;;;;;;7.53;100.00;99619.91;5117017;28;20051;-36
2023/12/13 00:22:24;;;;;;;6.53;2.30;;;;;;;7.46;100.00;99617.34;5116764;27;20023;-36
2023/12/13 00:24:50;;;;;;;5.43;1.77;;;;;;;7.51;100.00;99625.53;5116926;28;20031;-36
2023/12/13 00:27:15;;;;;;;3.93;1.70;;;;;;;7.50;100.00;99626.59;5116656;28;20471;-36
2023/12/13 00:29:40;;;;;;;4.27;1.37;;;;;;;7.46;100.00;99620.84;5117339;28;20024;-36
2023/12/13 00:32:06;;;;;;;4.33;1.57;;;;;;;7.43;100.00;99617.84;5116481;28;20028;-36
2023/12/13 00:34:31;;;;;;;6.97;1.57;;;;;;;7.34;100.00;99612.03;5116730;28;20376;-36
2023/12/13 00:36:56;;;;;;;4.33;1.67;;;;;;;7.39;100.00;99622.88;5116603;28;20111;-36
2023/12/13 00:39:22;;;;;;;3.93;1.70;;;;;;;7.36;100.00;99626.03;5116310;28;20262;-35
2023/12/13 00:41:47;;;;;;;3.37;1.60;;;;;;;7.33;100.00;99621.16;5116362;28;20023;-35
2023/12/13 00:44:12;;;;;;;5.50;1.83;;;;;;;7.30;100.00;99616.25;5116269;28;20410;-35
2023/12/13 00:46:39;;;;;;;3.88;1.77;;;;;;;7.34;100.00;99622.78;5116186;28;20476;-35
2023/12/13 00:49:05;;;;;;;5.00;1.52;;;;;;;7.32;100.00;99618.69;5116106;28;20032;-35
2023/12/13 00:51:30;;;;;;;3.53;1.40;;;;;;;7.30;100.00;99613.56;5116668;28;20035;-36
2023/12/13 00:53:56;;;;;;;3.80;1.38;;;;;;;7.33;100.00;99615.78;5115781;28;20032;-36
2023/12/13 00:56:21;;;;;;;4.83;1.60;;;;;;;7.31;100.00;99612.50;5116033;28;20047;-36
2023/12/13 00:58:47;;;;;;;3.90;1.33;;;;;;;7.35;100.00;99623.59;5116277;28;20062;-36
2023/12/13 01:01:13;;;;;;;4.75;1.60;;;;;;;7.33;100.00;99610.41;5116498;28;20106;-36
2023/12/13 01:03:38;;;;;;;3.22;1.10;;;;;;;7.25;100.00;99593.84;5115566;27;20444;-36
2023/12/13 01:06:10;;;;;;;3.23;1.53;;;;;;;7.36;100.00;99607.22;5115952;28;20031;-36
2023/12/13 01:08:37;;;;;;;4.57;1.30;;;;;;;7.36;100.00;99615.28;5115796;28;20073;-36
2023/12/13 01:11:07;;;;;;;5.07;1.48;;;;;;;7.31;100.00;99601.75;5115800;28;20023;-36
2023/12/13 01:13:33;;;;;;;5.93;1.52;;;;;;;7.36;100.00;99609.09;5115418;28;20059;-36
2023/12/13 01:15:58;;;;;;;5.22;1.50;;;;;;;7.33;100.00;99601.53;5114524;28;20104;-36
2023/12/13 01:18:23;;;;;;;3.80;1.40;;;;;;;7.38;100.00;99615.88;5115224;28;20024;-36
2023/12/13 01:20:49;;;;;;;3.07;1.27;;;;;;;7.38;100.00;99610.50;5115536;28;20031;-36
2023/12/13 01:23:14;;;;;;;4.37;1.17;;;;;;;7.39;100.00;99614.81;5115205;28;20148;-36
2023/12/13 01:25:39;;;;;;;3.37;1.40;;;;;;;7.38;100.00;99613.19;5115716;28;20039;-36
2023/12/13 01:28:05;;;;;;;1.80;1.10;;;;;;;7.37;100.00;99614.25;5115374;27;20030;-36
2023/12/13 01:30:30;;;;;;;4.17;1.30;;;;;;;7.38;100.00;99609.69;5115904;28;20031;-36
2023/12/13 01:32:55;;;;;;;2.97;1.27;;;;;;;7.41;100.00;99609.19;5115052;28;20506;-36
2023/12/13 01:35:20;;;;;;;5.10;1.60;;;;;;;7.37;100.00;99603.50;5114978;28;20102;-36
2023/12/13 01:37:46;;;;;;;3.43;1.13;;;;;;;7.42;100.00;99611.66;5114951;28;20066;-36
2023/12/13 01:40:11;;;;;;;5.43;1.88;;;;;;;7.36;100.00;99604.53;5115116;28;20015;-36
2023/12/13 01:42:38;;;;;;;3.53;1.57;;;;;;;7.34;100.00;99606.66;5115738;28;20443;-36
2023/12/13 01:45:04;;;;;;;4.10;2.28;;;;;;;7.32;100.00;99600.72;5115247;28;20031;-37
2023/12/13 01:47:29;;;;;;;4.05;1.65;;;;;;;7.43;100.00;99621.34;5115207;28;20031;-36
2023/12/13 01:49:54;;;;;;;3.47;1.45;;;;;;;7.44;100.00;99619.47;5114972;28;20095;-37
2023/12/13 01:52:21;;;;;;;5.60;1.50;;;;;;;7.47;100.00;99627.09;5115238;28;20197;-36
2023/12/13 01:54:48;;;;;;;3.45;1.38;;;;;;;7.46;100.00;99620.03;5115137;28;20104;-36
2023/12/13 01:57:14;;;;;;;3.95;1.42;;;;;;;7.46;100.00;99622.72;5115377;28;20055;-37
2023/12/13 01:59:41;;;;;;;5.38;1.67;;;;;;;7.45;100.00;99630.00;5114967;28;20027;-36
2023/12/13 02:02:06;;;;;;;4.25;1.63;;;;;;;7.38;100.00;99618.56;5114761;27;20475;-37
2023/12/13 02:04:34;;;;;;;4.45;1.98;;;;;;;7.39;100.00;99619.38;5114645;28;20081;-42
2023/12/13 02:07:01;;;;;;;5.70;1.73;;;;;;;7.42;100.00;99618.91;5114659;28;20061;-36
2023/12/13 02:09:26;;;;;;;;;;;;;;;7.48;100.00;99624.13;5115119;28;20027;-37
2023/12/13 02:11:52;;;;;;;4.37;1.83;;;;;;;7.44;100.00;99622.97;5114883;28;19919;-37
2023/12/13 02:14:18;;;;;;;4.82;1.63;;;;;;;7.43;100.00;99621.34;5114226;28;20265;-36
2023/12/13 02:16:43;;;;;;;7.93;2.05;;;;;;;7.41;100.00;99623.44;5114808;28;20031;-37
2023/12/13 02:19:10;;;;;;;5.43;1.95;;;;;;;7.39;100.00;99620.19;5114418;28;20371;-37
2023/12/13 02:21:36;;;;;;;3.58;1.98;;;;;;;7.39;100.00;99614.00;5114150;28;20026;-36
2023/12/13 02:24:03;;;;;;;4.57;1.73;;;;;;;7.40;100.00;99616.44;5114066;28;20036;-36
2023/12/13 02:26:29;;;;;;;5.55;2.33;;;;;;;7.40;100.00;99610.25;5114378;28;20107;-36
2023/12/13 02:28:55;;;;;;;5.47;2.00;;;;;;;7.39;100.00;99608.63;5113953;28;20451;-36
2023/12/13 02:31:21;;;;;;;4.85;2.53;;;;;;;7.42;100.00;99617.03;5114056;28;20764;-36
2023/12/13 02:33:46;;;;;;;6.45;2.22;;;;;;;7.32;100.00;99597.19;5114140;28;20027;-36
2023/12/13 02:36:12;;;;;;;7.73;2.57;;;;;;;7.41;100.00;99617.25;5114116;28;20019;-36
2023/12/13 02:38:40;;;;;;;4.78;2.38;;;;;;;7.40;100.00;99605.69;5114162;28;20263;-36
2023/12/13 02:41:05;;;;;;;7.70;2.63;;;;;;;7.44;100.00;99616.78;5114088;28;20027;-36
2023/12/13 02:43:30;;;;;;;5.53;2.10;;;;;;;7.36;100.00;99596.47;5114118;28;20031;-36
2023/12/13 02:45:56;;;;;;;6.80;2.60;;;;;;;7.30;100.00;99578.59;5114677;28;20040;-36
2023/12/13 02:48:21;;;;;;;5.00;2.03;;;;;;;7.32;100.00;99584.56;5113744;28;20063;-36
2023/12/13 02:50:48;;;;;;;6.67;2.07;;;;;;;7.42;100.00;99597.41;5114544;28;20073;-36
2023/12/13 02:53:14;;;;;;;6.72;2.00;;;;;;;7.42;100.00;99600.91;5113659;28;20270;-36
2023/12/13 02:55:39;;;;;;;6.28;2.15;;;;;;;7.33;100.00;99585.38;5113449;28;20055;-36
2023/12/13 02:58:05;;;;;;;6.20;2.35;;;;;;;7.43;100.00;99594.47;5113956;28;20071;-36
2023/12/13 03:00:30;;;;;;;5.55;2.25;;;;;;;7.41;100.00;99596.56;5114600;28;20387;-37
2023/12/13 03:02:57;;;;;;;5.07;2.03;;;;;;;7.34;100.00;99589.72;5113933;28;20032;-37
2023/12/13 03:05:22;;;;;;;5.65;2.33;;;;;;;7.42;100.00;99592.03;5114731;28;20044;-37
2023/12/13 03:07:47;;;;;;;5.37;2.23;;;;;;;7.40;100.00;99594.94;5113822;28;20455;-37
2023/12/13 03:10:13;;;;;;;4.30;2.07;;;;;;;7.39;100.00;99590.63;5113827;28;20038;-37
2023/12/13 03:12:39;;;;;;;5.87;1.97;;;;;;;7.42;100.00;99592.03;5114078;28;20081;-37
2023/12/13 03:15:04;;;;;;;;;;;;;;;7.49;100.00;99596.19;5113745;28;20382;-37
2023/12/13 03:17:30;;;;;;;6.55;2.03;;;;;;;7.45;100.00;99581.56;5114247;28;19933;-37
2023/12/13 03:19:55;;;;;;;7.43;2.40;;;;;;;7.40;100.00;99572.59;5113751;28;20023;-37
2023/12/13 03:22:20;;;;;;;7.43;2.53;;;;;;;7.40;100.00;99584.16;5113525;28;20048;-37
2023/12/13 03:24:46;;;;;;;7.70;2.43;;;;;;;7.42;100.00;99582.06;5114261;28;20039;-37
2023/12/13 03:27:11;;;;;;;6.73;2.23;;;;;;;7.41;100.00;99583.09;5114101;28;20028;-37
2023/12/13 03:29:37;;;;;;;5.67;1.90;;;;;;;7.35;100.00;99575.19;5114485;28;20031;-37
2023/12/13 03:32:03;;;;;;;6.43;2.83;;;;;;;7.40;100.00;99580.66;5113979;28;20106;-37
2023/12/13 03:34:29;;;;;;;7.57;2.60;;;;;;;7.40;100.00;99583.34;5113304;28;20472;-37
2023/12/13 03:36:54;;;;;;;7.70;2.30;;;;;;;7.39;100.00;99582.53;5113545;28;20023;-37
2023/12/13 03:39:19;;;;;;;9.40;2.70;;;;;;;7.39;100.00;99577.16;5114140;28;20020;-37
2023/12/13 03:41:45;;;;;;;6.97;2.40;;;;;;;7.40;100.00;99580.66;5113345;28;20487;-35
2023/12/13 03:44:10;;;;;;;6.73;2.10;;;;;;;7.35;100.00;99569.81;5117259;28;20379;-36
2023/12/13 03:46:36;;;;;;;7.38;2.30;;;;;;;7.40;100.00;99581.47;5117701;28;20031;-36
2023/12/13 03:49:01;;;;;;;5.05;1.92;;;;;;;7.40;100.00;99573.41;5117276;28;20031;-36
2023/12/13 03:51:26;;;;;;;9.10;2.27;;;;;;;7.41;100.00;99574.22;5117352;27;20031;-36
2023/12/13 03:53:52;;;;;;;7.13;2.10;;;;;;;7.40;100.00;99567.22;5116969;28;20115;-36
2023/12/13 03:56:17;;;;;;;6.50;2.20;;;;;;;7.41;100.00;99568.84;5117326;28;20130;-36
2023/12/13 03:58:42;;;;;;;6.40;2.10;;;;;;;7.36;100.00;99552.63;5116876;28;20032;-36
2023/12/13 04:01:08;;;;;;;9.83;2.10;;;;;;;7.42;100.00;99565.13;5117198;28;20036;-36
2023/12/13 04:03:34;;;;;;;7.25;2.13;;;;;;;7.36;100.00;99556.13;5117648;28;20024;-36
2023/12/13 04:06:00;;;;;;;;;;;;;;;7.45;100.00;99565.44;5117187;28;20039;-36
2023/12/13 04:08:25;;;;;;;6.95;2.30;;;;;;;7.43;100.00;99581.00;5117304;28;19911;-36
2023/12/13 04:10:51;;;;;;;6.47;1.83;;;;;;;7.39;100.00;99566.41;5117772;28;20028;-37
2023/12/13 04:13:16;;;;;;;7.23;2.77;;;;;;;7.36;100.00;99566.88;5116867;28;20442;-36
2023/12/13 04:15:42;;;;;;;8.13;2.20;;;;;;;7.37;100.00;99568.53;5117092;28;20058;-36
2023/12/13 04:18:07;;;;;;;;;;;;;;;7.42;100.00;99570.50;5117766;28;20395;-36
2023/12/13 04:20:33;;;;;;;6.63;2.27;;;;;;;7.35;100.00;99561.75;5117271;28;19908;-37
2023/12/13 04:22:58;;;;;;;6.93;2.20;;;;;;;7.39;100.00;99569.09;5116676;28;20269;-36
2023/12/13 04:25:23;;;;;;;10.53;2.13;;;;;;;7.36;100.00;99564.19;5116684;27;20049;-37
2023/12/13 04:27:49;;;;;;;10.90;2.40;;;;;;;7.42;100.00;99559.75;5116554;28;20031;-36
2023/12/13 04:30:14;;;;;;;8.30;2.23;;;;;;;7.39;100.00;99563.72;5116903;28;20356;-36
2023/12/13 04:32:40;;;;;;;8.75;2.35;;;;;;;7.36;100.00;99561.50;5116502;28;20467;-36
2023/12/13 04:35:06;;;;;;;9.35;2.78;;;;;;;7.29;100.00;99550.09;5116489;28;20034;-36
2023/12/13 04:37:32;;;;;;;7.63;2.05;;;;;;;7.35;100.00;99551.81;5116346;28;20026;-37
2023/12/13 04:39:58;;;;;;;6.45;1.80;;;;;;;7.42;100.00;99560.56;5116322;28;20020;-37
2023/12/13 04:42:23;;;;;;;9.02;2.20;;;;;;;7.44;100.00;99561.13;5116311;28;20031;-36
2023/12/13 04:44:49;;;;;;;7.35;2.90;;;;;;;7.45;100.00;99559.25;5116331;28;20028;-37
2023/12/13 04:47:14;;;;;;;9.02;2.65;;;;;;;7.44;100.00;99566.50;5116524;28;20042;-38
2023/12/13 04:49:40;;;;;;;9.20;2.20;;;;;;;7.44;100.00;99561.13;5116238;28;20027;-37
2023/12/13 04:52:05;;;;;;;10.27;3.03;;;;;;;7.43;100.00;99556.81;5116272;28;20051;-37
2023/12/13 04:54:30;;;;;;;9.13;2.50;;;;;;;7.43;100.00;99559.50;5115982;28;20028;-37
2023/12/13 04:56:56;;;;;;;7.70;2.27;;;;;;;7.38;100.00;99554.03;5116075;28;20402;-37
2023/12/13 04:59:21;;;;;;;7.87;2.33;;;;;;;7.44;100.00;99554.94;5115762;28;20489;-37
2023/12/13 05:01:46;;;;;;;9.83;2.47;;;;;;;7.45;100.00;99559.25;5115983;28;20024;-36
2023/12/13 05:04:12;;;;;;;13.27;3.47;;;;;;;7.42;100.00;99555.19;5115906;28;20074;-37
2023/12/13 05:06:37;;;;;;;9.13;2.27;;;;;;;7.43;100.00;99551.44;5115570;28;20027;-37
2023/12/13 05:09:03;;;;;;;9.90;2.35;;;;;;;7.43;100.00;99551.44;5116041;28;20035;-37
2023/12/13 05:11:28;;;;;;;12.20;3.00;;;;;;;7.45;100.00;99545.78;5116328;28;20069;-37
2023/12/13 05:13:53;;;;;;;11.37;2.50;;;;;;;7.44;100.00;99547.66;5115509;28;20549;-37
2023/12/13 05:16:19;;;;;;;10.87;2.57;;;;;;;7.34;100.00;99533.22;5115577;28;20100;-36
2023/12/13 05:18:44;;;;;;;10.00;2.60;;;;;;;7.46;100.00;99550.09;5115610;28;20764;-36
2023/12/13 05:21:10;;;;;;;9.13;2.45;;;;;;;7.46;100.00;99545.53;5115182;28;20274;-36
2023/12/13 05:23:36;;;;;;;9.40;2.20;;;;;;;7.47;100.00;99552.59;5114203;28;20529;-36
2023/12/13 05:26:01;;;;;;;10.47;2.60;;;;;;;7.49;100.00;99546.94;5116069;28;20031;-36
2023/12/13 05:28:27;;;;;;;12.60;2.83;;;;;;;7.45;100.00;99543.91;5115180;28;20273;-36
2023/12/13 05:30:52;;;;;;;11.45;2.47;;;;;;;7.51;100.00;99547.50;5115977;28;20019;-37
2023/12/13 05:33:18;;;;;;;11.10;2.72;;;;;;;7.45;100.00;99538.53;5115806;28;20024;-37
2023/12/13 05:35:43;;;;;;;9.27;2.90;;;;;;;7.40;100.00;99533.06;5115520;28;20122;-36
2023/12/13 05:38:09;;;;;;;11.30;3.30;;;;;;;7.53;100.00;99549.97;5115234;28;20265;-36
2023/12/13 05:40:34;;;;;;;12.30;3.08;;;;;;;7.51;100.00;99544.00;5114946;28;20027;-36
2023/12/13 05:43:01;;;;;;;11.30;2.57;;;;;;;7.48;100.00;99538.06;5115666;28;20028;-37
2023/12/13 05:45:26;;;;;;;12.93;3.00;;;;;;;7.47;100.00;99538.31;5115088;28;20312;-36
2023/12/13 05:47:51;;;;;;;12.23;2.70;;;;;;;7.53;100.00;99544.59;5114807;28;20031;-36
2023/12/13 05:50:17;;;;;;;13.90;2.70;;;;;;;7.49;100.00;99534.31;5115842;28;20024;-37
2023/12/13 05:52:42;;;;;;;9.93;2.47;;;;;;;7.47;100.00;99533.75;5115020;28;20060;-37
2023/12/13 05:55:08;;;;;;;7.87;2.63;;;;;;;7.52;100.00;99542.97;5115709;28;20444;-37
2023/12/13 05:57:33;;;;;;;14.77;2.60;;;;;;;7.54;100.00;99540.84;5115521;28;20115;-36
2023/12/13 05:59:59;;;;;;;11.88;3.25;;;;;;;7.47;100.00;99547.19;5114120;27;20019;-36
2023/12/13 06:02:24;;;;;;;9.13;2.70;;;;;;;7.55;100.00;99547.84;5115007;28;20027;-37
2023/12/13 06:04:51;;;;;;;8.63;2.78;;;;;;;7.54;100.00;99552.41;5113881;28;20051;-36
2023/12/13 06:07:17;;;;;;;11.73;2.88;;;;;;;7.55;100.00;99559.41;5114339;28;20034;-36
2023/12/13 06:09:42;;;;;;;14.20;3.00;;;;;;;7.54;100.00;99552.41;5114616;28;20023;-37
2023/12/13 06:12:08;;;;;;;12.13;2.83;;;;;;;7.56;100.00;99552.16;5115059;28;20023;-36
2023/12/13 06:14:33;;;;;;;12.98;3.63;;;;;;;7.57;100.00;99553.81;5114152;28;20039;-36
2023/12/13 06:16:59;;;;;;;11.37;3.50;;;;;;;7.57;100.00;99551.94;5114074;28;20081;-37
2023/12/13 06:19:26;;;;;;;8.47;3.10;;;;;;;7.56;100.00;99555.66;5114114;28;20027;-37
2023/12/13 06:21:53;;;;;;;10.27;2.88;;;;;;;7.56;100.00;99555.66;5114657;28;20024;-36
2023/12/13 06:24:18;;;;;;;9.48;3.10;;;;;;;7.56;100.00;99560.22;5114059;28;20028;-37
2023/12/13 06:26:44;;;;;;;11.73;2.95;;;;;;;7.46;100.00;99542.84;5114002;28;20357;-36
2023/12/13 06:29:11;;;;;;;9.33;3.00;;;;;;;7.59;100.00;99565.16;5114241;28;20032;-36
2023/12/13 06:31:43;;;;;;;13.05;3.00;;;;;;;7.56;100.00;99565.63;5114507;28;20031;-37
2023/12/13 06:34:09;;;;;;;13.52;3.30;;;;;;;7.57;100.00;99564.59;5112383;28;20031;-36
2023/12/13 06:36:34;;;;;;;9.20;3.17;;;;;;;7.40;100.00;99541.13;5114118;28;20028;-37
2023/12/13 06:39:04;;;;;;;10.80;3.20;;;;;;;7.56;100.00;99565.63;5114277;28;20023;-37
2023/12/13 06:41:30;;;;;;;11.82;3.30;;;;;;;7.54;100.00;99563.19;5114171;28;20161;-37
2023/12/13 06:43:56;;;;;;;9.88;3.40;;;;;;;7.57;100.00;99572.66;5113896;28;20047;-37
2023/12/13 06:46:25;;;;;;;9.45;3.05;;;;;;;7.56;100.00;99571.81;5112879;28;20039;-36
2023/12/13 06:48:53;;;;;;;11.35;4.40;;;;;;;7.55;100.00;99564.00;5114903;28;20031;-37
2023/12/13 06:51:19;;;;;;;9.52;3.28;;;;;;;7.53;100.00;99558.03;5114204;28;20044;-36
2023/12/13 06:53:44;;;;;;;10.05;3.35;;;;;;;7.53;100.00;99558.03;5113982;28;20158;-36
2023/12/13 06:56:10;;;;;;;8.20;2.80;;;;;;;7.46;100.00;99550.09;5114036;28;20130;-37
2023/12/13 06:58:35;;;;;;;9.73;2.83;;;;;;;7.59;100.00;99576.72;5113705;28;20076;-36
2023/12/13 07:01:01;;;;;;;12.82;3.80;;;;;;;7.57;100.00;99567.28;5114241;28;20094;-36
2023/12/13 07:03:26;;;;;;;9.73;3.03;;;;;;;7.53;100.00;99566.13;5113854;28;20521;-36
2023/12/13 07:05:52;;;;;;;13.63;3.63;;;;;;;7.60;100.00;99572.16;5114682;28;20042;-36
2023/12/13 07:08:18;;;;;;;13.00;3.90;;;;;;;7.60;100.00;99578.34;5113511;28;20035;-36
2023/12/13 07:10:43;;;;;;;14.23;3.50;;;;;;;7.61;100.00;99584.53;5113947;28;20031;-36
2023/12/13 07:13:08;;;;;;;13.70;4.83;;;;;;;7.60;100.00;99577.53;5113891;28;20119;-37
2023/12/13 07:15:34;;;;;;;12.30;3.83;;;;;;;7.60;100.00;99577.53;5113989;28;20026;-36
2023/12/13 07:17:59;;;;;;;9.03;3.73;;;;;;;7.52;100.00;99567.19;5115619;28;20621;-37
2023/12/13 07:20:24;;;;;;;15.40;4.60;;;;;;;7.59;100.00;99575.91;5117647;28;20023;-36
2023/12/13 07:22:50;;;;;;;14.27;3.80;;;;;;;7.50;100.00;99567.41;5118423;28;20019;-36
2023/12/13 07:25:16;;;;;;;12.10;4.37;;;;;;;7.56;100.00;99585.25;5117610;28;20425;-36
2023/12/13 07:27:41;;;;;;;8.98;3.30;;;;;;;7.55;100.00;99583.63;5118119;28;20031;-36
2023/12/13 07:30:07;;;;;;;9.57;3.75;;;;;;;7.47;100.00;99574.09;5118551;28;20031;-36
2023/12/13 07:32:33;;;;;;;11.57;4.15;;;;;;;7.54;100.00;99583.88;5117779;28;20030;-36
2023/12/13 07:34:58;;;;;;;12.70;3.80;;;;;;;7.54;100.00;99589.25;5117614;28;20043;-36
2023/12/13 07:37:24;;;;;;;9.98;3.55;;;;;;;7.56;100.00;99587.13;5117636;28;20031;-37
2023/12/13 07:39:49;;;;;;;11.07;3.87;;;;;;;7.49;100.00;99581.91;5118055;28;20042;-36
2023/12/13 07:42:14;;;;;;;13.33;3.77;;;;;;;7.52;100.00;99583.31;5118086;27;20387;-36
2023/12/13 07:44:40;;;;;;;10.27;4.07;;;;;;;7.52;100.00;99581.44;5117739;28;20027;-36
2023/12/13 07:47:06;;;;;;;13.10;3.70;;;;;;;7.44;100.00;99577.25;5117384;28;20107;-37
2023/12/13 07:49:31;;;;;;;12.07;4.30;;;;;;;7.52;100.00;99591.41;5117591;28;20102;-37
2023/12/13 07:51:56;;;;;;;9.13;3.80;;;;;;;7.35;100.00;99557.19;5117911;28;20028;-36
2023/12/13 07:54:22;;;;;;;9.90;3.93;;;;;;;7.52;100.00;99588.69;5117250;28;20031;-36
2023/12/13 07:56:49;;;;;;;8.00;4.00;;;;;;;7.53;100.00;99593.03;5117415;28;20134;-36
2023/12/13 07:59:15;;;;;;;12.52;4.38;;;;;;;7.53;100.00;99590.31;5116807;28;20484;-36
2023/12/13 08:01:40;;;;;;;11.02;4.28;;;;;;;7.54;100.00;99595.47;5116730;28;20063;-36
2023/12/13 08:04:06;;;;;;;8.83;3.47;;;;;;;7.54;100.00;99591.94;5117115;27;20031;-36
2023/12/13 08:06:32;;;;;;;9.53;4.40;;;;;;;7.53;100.00;99598.41;5116741;28;20273;-36
2023/12/13 08:08:57;;;;;;;11.07;3.80;;;;;;;7.53;100.00;99598.41;5116636;27;20057;-36
2023/12/13 08:11:22;;;;;;;9.27;3.70;;;;;;;7.54;100.00;99600.84;5117849;28;20105;-36
2023/12/13 08:13:48;;;;;;;6.47;3.63;;;;;;;7.56;100.00;99597.91;5116895;28;20028;-36
2023/12/13 08:16:13;;;;;;;7.70;3.60;;;;;;;7.54;100.00;99600.03;5117066;28;20393;-36
2023/12/13 08:18:38;;;;;;;11.60;4.13;;;;;;;7.55;100.00;99596.28;5116776;28;20047;-37
2023/12/13 08:21:06;;;;;;;11.97;3.87;;;;;;;7.56;100.00;99603.28;5117381;28;20031;-36
2023/12/13 08:23:34;;;;;;;8.60;3.70;;;;;;;7.57;100.00;99599.56;5117188;28;20024;-37
2023/12/13 08:25:59;;;;;;;7.68;3.65;;;;;;;7.56;100.00;99601.41;5116730;28;20036;-37
2023/12/13 08:28:25;;;;;;;12.57;4.50;;;;;;;7.59;100.00;99592.84;5116220;28;20376;-36
2023/12/13 08:30:50;;;;;;;12.20;4.03;;;;;;;7.54;100.00;99592.78;5116695;28;20020;-36
2023/12/13 08:33:15;;;;;;;9.13;4.37;;;;;;;7.61;100.00;99606.06;5116779;28;20028;-36
2023/12/13 08:35:41;;;;;;;12.80;4.40;;;;;;;7.60;100.00;99615.19;5116733;27;20454;-36
2023/12/13 08:38:06;;;;;;;9.97;4.77;;;;;;;7.60;100.00;99616.00;5117023;28;20448;-36
2023/12/13 08:40:31;;;;;;;14.20;4.37;;;;;;;7.61;100.00;99614.13;5116744;27;20027;-37
2023/12/13 08:42:57;;;;;;;8.37;4.27;;;;;;;7.61;100.00;99619.50;5116339;28;20020;-36
2023/12/13 08:45:22;;;;;;;11.20;5.13;;;;;;;7.58;100.00;99606.56;5116641;28;20063;-36
2023/12/13 08:47:47;;;;;;;8.67;3.77;;;;;;;7.60;100.00;99615.19;5116578;28;20023;-37
2023/12/13 08:50:14;;;;;;;11.32;3.75;;;;;;;7.59;100.00;99610.88;5116739;28;20051;-36
2023/12/13 08:52:40;;;;;;;10.63;4.25;;;;;;;7.67;100.00;99629.34;5116158;28;20111;-36
2023/12/13 08:55:08;;;;;;;9.43;4.65;;;;;;;7.67;100.00;99624.75;5116117;28;20043;-36
2023/12/13 08:57:34;;;;;;;13.30;4.97;;;;;;;7.62;100.00;99613.09;5116564;28;20112;-37
2023/12/13 08:59:59;;;;;;;8.73;3.92;;;;;;;7.66;100.00;99620.44;5115977;28;20035;-37
2023/12/13 09:02:25;;;;;;;10.02;4.63;;;;;;;7.71;100.00;99627.75;5116802;28;20364;-37
2023/12/13 09:04:50;;;;;;;6.73;3.90;;;;;;;7.72;100.00;99624.84;5116208;28;20375;-36
2023/12/13 09:07:17;;;;;;;11.90;4.50;;;;;;;7.75;100.00;99628.91;5115676;28;20031;-36
2023/12/13 09:09:43;;;;;;;9.52;3.97;;;;;;;7.69;100.00;99628.00;5116063;27;20084;-36
2023/12/13 09:12:08;;;;;;;7.63;3.60;;;;;;;7.74;100.00;99621.91;5116053;28;20090;-36
2023/12/13 09:14:33;;;;;;;11.20;4.60;;;;;;;7.65;100.00;99609.91;5115981;28;20027;-36
2023/12/13 09:17:01;;;;;;;11.73;4.20;;;;;;;7.83;100.00;99642.00;5116148;28;20019;-37
2023/12/13 09:19:26;;;;;;;10.02;4.43;;;;;;;7.85;100.00;99645.25;5115530;28;20096;-36
2023/12/13 09:21:51;;;;;;;11.38;4.47;;;;;;;7.89;100.00;99643.72;5116158;28;20456;-36
2023/12/13 09:24:17;;;;;;;8.90;4.10;;;;;;;7.92;100.00;99640.53;5115503;28;20088;-37
2023/12/13 09:26:43;;;;;;;8.20;4.32;;;;;;;7.89;100.00;99629.44;5115532;28;20031;-36
2023/12/13 09:29:08;;;;;;;8.73;4.80;;;;;;;7.98;100.00;99634.19;5115718;28;20080;-37
2023/12/13 09:31:34;;;;;;;9.20;4.10;;;;;;;7.98;100.00;99630.66;5115996;28;20027;-37
2023/12/13 09:33:59;;;;;;;9.38;4.72;;;;;;;8.10;100.00;99644.91;5115560;28;20435;-37
2023/12/13 09:36:24;;;;;;;12.73;5.33;;;;;;;8.09;100.00;99639.72;5115602;28;20441;-37
2023/12/13 09:38:50;;;;;;;11.07;4.33;;;;;;;8.19;100.00;99647.97;5115469;28;20104;-36
2023/12/13 09:41:23;;;;;;;7.60;4.07;;;;;;;8.24;100.00;99642.66;5114711;28;20032;-36
2023/12/13 09:43:49;;;;;;;12.13;4.82;;;;;;;8.27;100.00;99648.41;5115472;28;20102;-36
2023/12/13 09:46:18;;;;;;;12.20;4.72;;;;;;;8.29;100.00;99658.09;5115115;28;20035;-37
2023/12/13 09:48:44;;;;;;;11.13;4.70;;;;;;;8.32;100.00;99657.63;5114766;28;20080;-36
2023/12/13 09:51:11;;;;;;;9.30;4.57;;;;;;;8.33;100.00;99657.38;5115824;28;20345;-37
2023/12/13 09:53:38;;;;;;;13.75;4.38;;;;;;;8.30;100.00;99657.88;5115482;28;20028;-37
2023/12/13 09:56:04;;;;;;;9.85;4.40;;;;;;;8.25;100.00;99650.53;5115247;28;20372;-36
2023/12/13 09:58:30;;;;;;;9.55;4.25;;;;;;;8.32;100.00;99663.81;5114816;28;20016;-36
2023/12/13 10:00:56;;;;;;;12.60;4.57;;;;;;;8.36;100.00;99666.84;5115453;28;20034;-36
2023/12/13 10:03:21;;;;;;;12.27;4.60;;;;;;;8.31;100.00;99658.69;5115014;28;20273;-36
2023/12/13 10:05:48;;;;;;;15.93;4.60;;;;;;;8.39;100.00;99666.38;5114468;28;20395;-37
2023/12/13 10:08:15;;;;;;;10.38;4.70;;;;;;;8.41;100.00;99669.66;5114940;28;20509;-36
2023/12/13 10:10:42;;;;;;;14.40;5.50;;;;;;;8.41;100.00;99670.47;5114598;28;20049;-37
2023/12/13 10:13:09;;;;;;;11.18;4.97;;;;;;;8.47;100.00;99674.06;5114587;28;20376;-37
2023/12/13 10:15:35;;;;;;;9.40;5.07;;;;;;;8.54;100.00;99677.41;5114772;28;20031;-37
2023/12/13 10:18:02;;;;;;;12.20;4.93;;;;;;;8.57;100.00;99684.19;5114539;28;20093;-36
2023/12/13 10:20:28;;;;;;;;;;;;;;;8.65;100.00;99684.59;5115530;28;20023;-36
2023/12/13 10:22:54;;;;;;;10.73;4.70;;;;;;;8.62;100.00;99676.16;5115055;28;19954;-37
2023/12/13 10:25:21;;;;;;;8.52;4.57;;;;;;;8.62;100.00;99689.63;5114622;28;20517;-36
2023/12/13 10:27:47;;;;;;;10.90;4.75;;;;;;;8.60;100.00;99689.09;5114153;28;20376;-36
2023/12/13 10:30:12;;;;;;;10.27;4.38;;;;;;;8.58;100.00;99683.09;5114399;28;20034;-40
2023/12/13 10:32:38;;;;;;;10.15;4.53;;;;;;;8.66;100.00;99688.09;5113967;28;20477;-37
2023/12/13 10:35:05;;;;;;;10.65;4.72;;;;;;;8.67;100.00;99695.09;5114239;28;20070;-37
2023/12/13 10:37:33;;;;;;;;;;;;;;;8.77;100.00;99696.06;5115155;28;20042;-36
2023/12/13 10:39:59;;;;;;;8.45;4.40;;;;;;;8.71;100.00;99686.28;5114060;28;19918;-36
2023/12/13 10:42:25;;;;;;;11.63;4.20;;;;;;;8.69;100.00;99693.81;5114230;28;20027;-37
2023/12/13 10:44:52;;;;;;;13.52;5.30;;;;;;;8.74;100.00;99685.00;5114069;28;20046;-36
2023/12/13 10:47:26;;;;;;;13.77;4.90;;;;;;;8.72;100.00;99685.22;5114462;28;20031;-36
2023/12/13 10:49:54;;;;;;;9.07;4.38;;;;;;;8.77;100.00;99687.19;5114329;28;20031;-36
2023/12/13 10:52:21;;;;;;;8.98;4.97;;;;;;;8.82;100.00;99695.34;5114716;28;20062;-37
2023/12/13 10:54:52;;;;;;;10.95;5.20;;;;;;;8.82;100.00;99681.84;5114785;28;20027;-36
2023/12/13 10:57:17;;;;;;;9.77;4.45;;;;;;;8.83;100.00;99670.00;5115019;28;20048;-36
2023/12/13 10:59:44;;;;;;;10.98;4.60;;;;;;;8.87;100.00;99683.81;5114746;28;20355;-36
2023/12/13 11:02:12;;;;;;;12.10;4.25;;;;;;;8.91;100.00;99680.38;5114495;28;20031;-36
2023/12/13 11:04:40;;;;;;;10.30;4.70;;;;;;;8.94;100.00;99679.88;5113586;28;20079;-36
2023/12/13 11:07:06;;;;;;;9.43;4.50;;;;;;;8.97;100.00;99683.94;5114456;28;20043;-37
2023/12/13 11:09:31;;;;;;;12.20;4.30;;;;;;;8.95;100.00;99686.91;5113542;28;20028;-37
2023/12/13 11:11:59;;;;;;;8.85;4.28;;;;;;;9.02;100.00;99694.81;5114151;28;20072;-37
2023/12/13 11:14:28;;;;;;;8.73;3.78;;;;;;;8.96;100.00;99688.53;5113810;28;20035;-37
2023/12/13 11:16:57;;;;;;;7.55;4.38;;;;;;;9.05;100.00;99691.63;5114051;28;20491;-37
2023/12/13 11:19:24;;;;;;;10.15;4.35;;;;;;;9.00;100.00;99692.38;5113489;28;20438;-36
2023/12/13 11:21:50;;;;;;;7.22;3.97;;;;;;;8.95;100.00;99688.78;5114059;28;20024;-37
2023/12/13 11:24:20;;;;;;;11.23;4.82;;;;;;;9.01;100.00;99707.47;5113680;28;20032;-37